Terminal Aerodrome Forecast
Issued by NWS Twin Cities, MN

Home | Current Version | Previous Version | Graphics & Text | Print | Product List | Glossary On
Versions: 1 2 3 4 5 6 7 8 9 10 11 12 13 14 15
137
FTUS43 KMPX 291131
TAFEAU
TAF
KEAU 291131Z 2912/3012 27010KT P6SM OVC016
     FM291600 27014G21KT P6SM VCSH OVC025
     FM291900 29015G24KT P6SM VCSH OVC040
     FM300100 27007KT P6SM SCT040 BKN100=

USA.gov is the U.S. government's official web portal to all federal, state and local government web resources and services.